createdAt,value
2018-11-26T00:00:36.107Z,85.13
2018-11-26T00:05:54.768Z,89.53
2018-11-26T00:11:24.559Z,79.30
2018-11-26T00:16:43.294Z,76.03
2018-11-26T00:22:01.882Z,74.03
2018-11-26T00:27:20.480Z,88.30
2018-11-26T00:32:39.039Z,86.15
2018-11-26T00:37:57.684Z,76.80
2018-11-26T00:43:16.228Z,80.53
2018-11-26T00:48:34.749Z,85.10
2018-11-26T00:53:53.300Z,88.27
2018-11-26T00:59:11.961Z,78.27
2018-11-26T01:04:30.603Z,79.07
2018-11-26T01:09:49.207Z,79.00
2018-11-26T01:15:08.095Z,86.40
2018-11-26T01:20:26.749Z,83.23
2018-11-26T01:25:45.459Z,75.70
2018-11-26T01:31:03.948Z,71.23
2018-11-26T01:36:22.568Z,76.87
2018-11-26T01:41:41.123Z,79.27
2018-11-26T01:46:59.659Z,87.70
2018-11-26T01:52:18.190Z,79.83
2018-11-26T01:57:36.812Z,78.40
2018-11-26T02:02:55.537Z,83.83
2018-11-26T02:08:14.172Z,87.95
2018-11-26T02:13:32.727Z,89.90
2018-11-26T02:18:51.473Z,85.60
2018-11-26T02:24:09.983Z,83.60
2018-11-26T02:29:28.674Z,75.90
2018-11-26T02:34:47.297Z,83.77
2018-11-26T02:40:08.110Z,85.57
2018-11-26T02:45:27.064Z,78.17
2018-11-26T02:50:45.580Z,84.53
2018-11-26T02:56:04.111Z,72.90
2018-11-26T03:01:22.717Z,80.47
2018-11-26T03:06:41.240Z,87.07
2018-11-26T03:11:59.925Z,78.13
2018-11-26T03:17:18.472Z,78.20
2018-11-26T03:22:37.141Z,78.30
2018-11-26T03:27:55.796Z,74.23
2018-11-26T03:33:14.359Z,80.90
2018-11-26T03:38:44.479Z,80.30
2018-11-26T03:44:03.011Z,87.73
2018-11-26T03:49:21.587Z,78.93
2018-11-26T03:54:40.143Z,70.57
2018-11-26T03:59:58.728Z,76.23
2018-11-26T04:05:17.929Z,69.87
2018-11-26T04:10:36.463Z,66.13
2018-11-26T04:15:55.031Z,69.10
2018-11-26T04:21:13.541Z,75.40
2018-11-26T04:26:32.064Z,77.53
2018-11-26T04:31:50.640Z,76.10
2018-11-26T04:37:09.149Z,70.77
2018-11-26T04:42:27.666Z,68.67
2018-11-26T04:47:46.209Z,71.77
2018-11-26T04:53:04.872Z,77.43
2018-11-26T04:58:23.448Z,68.50
2018-11-26T05:03:42.006Z,64.53
2018-11-26T05:09:00.715Z,76.60
2018-11-26T05:14:19.252Z,74.60
2018-11-26T05:19:37.831Z,68.53
2018-11-26T05:24:56.365Z,72.93
2018-11-26T05:30:15.052Z,68.17
2018-11-26T05:35:33.827Z,67.93
2018-11-26T05:40:52.429Z,73.97
2018-11-26T05:46:11.138Z,71.27
2018-11-26T05:51:29.715Z,68.80
2018-11-26T05:56:48.225Z,67.20
2018-11-26T06:02:06.868Z,66.20
2018-11-26T06:07:25.468Z,65.37
2018-11-26T06:12:44.042Z,67.80
2018-11-26T06:18:02.579Z,60.33
2018-11-26T06:23:21.290Z,70.10
2018-11-26T06:28:39.943Z,61.90
2018-11-26T06:33:58.478Z,69.17
2018-11-26T06:39:17.043Z,64.58
2018-11-26T06:44:35.559Z,78.67
2018-11-26T06:49:54.228Z,69.60
2018-11-26T06:55:15.136Z,63.13
2018-11-26T07:00:33.739Z,65.53
2018-11-26T07:05:52.384Z,65.87
2018-11-26T07:11:10.943Z,65.13
2018-11-26T07:16:29.456Z,70.17
2018-11-26T07:21:47.968Z,68.17
2018-11-26T07:27:06.873Z,62.00
2018-11-26T07:32:25.389Z,61.87
2018-11-26T07:37:44.024Z,60.45
2018-11-26T07:43:09.947Z,64.80
2018-11-26T07:48:28.629Z,68.63
2018-11-26T07:53:47.220Z,74.70
2018-11-26T07:59:05.764Z,70.67
2018-11-26T08:04:24.307Z,74.90
2018-11-26T08:09:42.823Z,64.93
2018-11-26T08:15:01.393Z,65.23
2018-11-26T08:20:19.964Z,71.55
2018-11-26T08:25:38.700Z,71.60
2018-11-26T08:30:57.299Z,66.10
2018-11-26T08:36:16.087Z,57.73
2018-11-26T08:41:36.713Z,65.77
2018-11-26T08:47:00.929Z,70.00
2018-11-26T08:52:20.413Z,66.70
2018-11-26T08:57:39.024Z,63.57
2018-11-26T09:03:04.007Z,63.40
2018-11-26T09:08:22.611Z,67.63
2018-11-26T09:13:41.300Z,72.97
2018-11-26T09:18:59.867Z,58.03
2018-11-26T09:24:18.376Z,61.50
2018-11-26T09:29:36.931Z,64.53
2018-11-26T09:34:55.483Z,62.10
2018-11-26T09:40:15.267Z,64.83
2018-11-26T09:45:40.089Z,59.60
2018-11-26T09:50:52.358Z,66.80
2018-11-26T09:56:10.940Z,57.13
2018-11-26T10:01:29.556Z,55.57
2018-11-26T10:06:48.075Z,62.57
2018-11-26T10:12:06.615Z,58.47
2018-11-26T10:17:25.208Z,67.83
2018-11-26T10:22:44.274Z,67.53
2018-11-26T10:28:02.945Z,66.10
2018-11-26T10:33:21.527Z,70.57
2018-11-26T10:38:40.116Z,69.32
2018-11-26T10:43:58.690Z,69.17
2018-11-26T10:49:17.181Z,68.43
2018-11-26T10:54:35.812Z,72.27
2018-11-26T10:59:54.427Z,66.87
2018-11-26T11:05:12.991Z,72.60
2018-11-26T11:10:32.873Z,66.07
2018-11-26T11:15:51.457Z,69.20
2018-11-26T11:21:09.989Z,73.77
2018-11-26T11:26:28.552Z,67.60
2018-11-26T11:31:47.145Z,63.73
2018-11-26T11:37:05.823Z,66.10
2018-11-26T11:42:24.364Z,59.13
2018-11-26T11:47:42.967Z,59.37
2018-11-26T11:53:01.481Z,63.00
2018-11-26T11:58:20.014Z,64.57
2018-11-26T12:03:38.594Z,76.63
2018-11-26T12:08:57.409Z,71.73
2018-11-26T12:14:17.250Z,64.03
2018-11-26T12:19:35.921Z,73.20
2018-11-26T12:24:54.524Z,64.00
2018-11-26T12:30:15.557Z,63.92
2018-11-26T12:35:34.384Z,68.50
2018-11-26T12:40:52.872Z,66.42
2018-11-26T12:46:11.475Z,64.50
2018-11-26T12:51:29.984Z,63.53
2018-11-26T12:56:48.581Z,67.17
2018-11-26T13:02:07.546Z,67.30
2018-11-26T13:07:26.113Z,65.53
2018-11-26T13:12:45.078Z,65.17
2018-11-26T13:18:03.680Z,64.83
2018-11-26T13:23:22.235Z,67.10
2018-11-26T13:28:40.784Z,59.83
2018-11-26T13:33:59.353Z,67.33
2018-11-26T13:39:18.026Z,56.97
2018-11-26T13:44:36.614Z,65.87
2018-11-26T13:49:55.168Z,61.63
2018-11-26T13:55:13.736Z,57.67
2018-11-26T14:00:32.423Z,61.10
2018-11-26T14:05:51.142Z,67.73
2018-11-26T14:11:09.786Z,59.83
2018-11-26T14:16:28.378Z,64.70
2018-11-26T14:21:47.195Z,65.87
2018-11-26T14:27:06.250Z,70.20
2018-11-26T14:32:24.815Z,65.20
2018-11-26T14:37:43.507Z,77.87
2018-11-26T14:43:02.047Z,80.95
2018-11-26T14:48:20.560Z,73.47
2018-11-26T14:53:39.115Z,72.87
2018-11-26T14:58:57.879Z,80.20
2018-11-26T15:04:16.766Z,71.33
2018-11-26T15:09:35.375Z,76.23
2018-11-26T15:14:53.958Z,68.80
2018-11-26T15:20:14.099Z,74.27
2018-11-26T15:25:34.321Z,76.83
2018-11-26T15:30:53.226Z,72.60
2018-11-26T15:36:11.822Z,79.83
2018-11-26T15:41:30.373Z,81.97
2018-11-26T15:46:48.965Z,84.13
2018-11-26T15:52:07.537Z,92.77
2018-11-26T15:57:26.117Z,85.53
2018-11-26T16:02:44.797Z,86.93
2018-11-26T16:08:05.426Z,76.77
2018-11-26T16:13:24.068Z,85.80
2018-11-26T16:18:42.614Z,83.33
2018-11-26T16:24:01.195Z,73.10
2018-11-26T16:29:19.769Z,79.85
2018-11-26T16:34:38.362Z,82.67
2018-11-26T16:39:56.936Z,84.57
2018-11-26T16:45:17.960Z,81.02
2018-11-26T16:50:37.384Z,81.60
2018-11-26T16:55:56.013Z,82.93
2018-11-26T17:01:14.632Z,82.33
2018-11-26T17:06:33.190Z,82.30
2018-11-26T17:11:51.751Z,82.70
2018-11-26T17:17:10.334Z,83.73
2018-11-26T17:22:28.923Z,89.97
2018-11-26T17:27:47.726Z,79.07
2018-11-26T17:33:08.166Z,82.87
2018-11-26T17:38:26.723Z,84.33
2018-11-26T17:43:45.219Z,83.47
2018-11-26T17:49:03.774Z,86.93
2018-11-26T17:54:22.406Z,93.57
2018-11-26T17:59:41.440Z,89.67
2018-11-26T18:04:59.957Z,80.27
2018-11-26T18:10:19.648Z,81.42
2018-11-26T18:15:38.191Z,79.70
2018-11-26T18:20:56.736Z,73.63
2018-11-26T18:26:15.663Z,77.17
2018-11-26T18:31:35.068Z,82.67
2018-11-26T18:36:53.686Z,85.93
2018-11-26T18:42:12.335Z,75.73
2018-11-26T18:47:31.227Z,78.40
2018-11-26T18:52:50.522Z,71.07
2018-11-26T18:58:09.153Z,77.00
2018-11-26T19:03:27.714Z,78.50
2018-11-26T19:08:46.336Z,80.53
2018-11-26T19:14:12.014Z,73.93
2018-11-26T19:19:30.629Z,73.20
2018-11-26T19:24:49.214Z,69.60
2018-11-26T19:30:10.593Z,80.13
2018-11-26T19:35:29.081Z,81.83
2018-11-26T19:40:47.725Z,79.37
2018-11-26T19:46:06.829Z,73.63
2018-11-26T19:51:25.475Z,69.83
2018-11-26T19:56:44.058Z,72.57
2018-11-26T20:02:03.037Z,74.53
2018-11-26T20:07:21.784Z,82.23
2018-11-26T20:12:40.511Z,72.30
2018-11-26T20:17:59.257Z,69.53
2018-11-26T20:23:17.899Z,71.37
2018-11-26T20:28:36.446Z,78.27
2018-11-26T20:33:54.961Z,67.60
2018-11-26T20:39:13.513Z,68.27
2018-11-26T20:44:32.115Z,62.78
2018-11-26T20:49:50.731Z,69.63
2018-11-26T20:55:11.835Z,69.50
2018-11-26T21:00:30.415Z,70.07
2018-11-26T21:05:48.945Z,67.90
2018-11-26T21:11:07.633Z,66.13
2018-11-26T21:16:26.194Z,70.33
2018-11-26T21:21:44.846Z,68.20
2018-11-26T21:27:03.472Z,65.07
2018-11-26T21:32:22.091Z,62.43
2018-11-26T21:37:41.708Z,66.30
2018-11-26T21:43:00.688Z,68.50
2018-11-26T21:48:18.928Z,65.77
2018-11-26T21:53:37.723Z,66.53
2018-11-26T21:58:56.288Z,70.77
2018-11-26T22:04:14.934Z,67.70
2018-11-26T22:09:33.490Z,64.30
2018-11-26T22:14:51.987Z,59.73
2018-11-26T22:20:31.930Z,62.00
2018-11-26T22:25:50.487Z,60.27
2018-11-26T22:31:09.082Z,62.90
2018-11-26T22:36:27.574Z,62.17
2018-11-26T22:41:46.116Z,56.90
2018-11-26T22:47:04.692Z,64.90
2018-11-26T22:52:23.332Z,62.97
2018-11-26T22:57:42.293Z,60.28
2018-11-26T23:03:01.325Z,56.67
2018-11-26T23:08:19.850Z,63.17
2018-11-26T23:13:38.616Z,60.27
2018-11-26T23:18:57.129Z,67.82
2018-11-26T23:24:15.687Z,57.50
2018-11-26T23:29:34.520Z,63.87
2018-11-26T23:34:53.075Z,57.43
2018-11-26T23:40:12.681Z,58.13
2018-11-26T23:45:31.204Z,59.97
2018-11-26T23:50:49.806Z,60.07
2018-11-26T23:56:08.532Z,57.27
